sensor_id;sensor_type;location;lat;lon;timestamp;P1;durP1;ratioP1;P2;durP2;ratioP2
2213;SDS011;1113;42.018;23.986;2023-03-31T00:01:39;19.42;;;14.27;;
2213;SDS011;1113;42.018;23.986;2023-03-31T00:04:06;23.33;;;15.52;;
2213;SDS011;1113;42.018;23.986;2023-03-31T00:06:34;22.58;;;16.77;;
2213;SDS011;1113;42.018;23.986;2023-03-31T00:09:02;20.30;;;13.32;;
2213;SDS011;1113;42.018;23.986;2023-03-31T00:11:29;18.63;;;13.70;;
2213;SDS011;1113;42.018;23.986;2023-03-31T00:13:55;18.92;;;14.70;;
2213;SDS011;1113;42.018;23.986;2023-03-31T00:16:22;20.23;;;14.60;;
2213;SDS011;1113;42.018;23.986;2023-03-31T00:18:49;25.60;;;16.08;;
2213;SDS011;1113;42.018;23.986;2023-03-31T00:21:17;25.38;;;14.48;;
2213;SDS011;1113;42.018;23.986;2023-03-31T00:23:49;23.17;;;15.60;;
2213;SDS011;1113;42.018;23.986;2023-03-31T00:26:16;19.05;;;15.57;;
2213;SDS011;1113;42.018;23.986;2023-03-31T00:28:42;20.52;;;15.25;;
2213;SDS011;1113;42.018;23.986;2023-03-31T00:31:09;20.55;;;14.30;;
2213;SDS011;1113;42.018;23.986;2023-03-31T00:33:36;22.98;;;15.68;;
2213;SDS011;1113;42.018;23.986;2023-03-31T00:36:04;26.10;;;17.88;;
2213;SDS011;1113;42.018;23.986;2023-03-31T00:38:30;25.05;;;17.50;;
2213;SDS011;1113;42.018;23.986;2023-03-31T00:40:57;24.92;;;16.42;;
2213;SDS011;1113;42.018;23.986;2023-03-31T00:43:25;23.80;;;17.05;;
2213;SDS011;1113;42.018;23.986;2023-03-31T00:45:53;20.90;;;15.90;;
2213;SDS011;1113;42.018;23.986;2023-03-31T00:48:20;24.08;;;16.27;;
2213;SDS011;1113;42.018;23.986;2023-03-31T00:50:49;23.10;;;17.08;;
2213;SDS011;1113;42.018;23.986;2023-03-31T00:53:20;25.77;;;16.55;;
2213;SDS011;1113;42.018;23.986;2023-03-31T00:55:49;24.30;;;16.20;;
2213;SDS011;1113;42.018;23.986;2023-03-31T00:58:16;24.02;;;15.95;;
2213;SDS011;1113;42.018;23.986;2023-03-31T01:00:44;26.60;;;18.08;;
2213;SDS011;1113;42.018;23.986;2023-03-31T01:03:12;26.05;;;17.70;;
2213;SDS011;1113;42.018;23.986;2023-03-31T01:05:41;25.80;;;17.70;;
2213;SDS011;1113;42.018;23.986;2023-03-31T01:08:08;26.00;;;17.58;;
2213;SDS011;1113;42.018;23.986;2023-03-31T01:10:38;28.63;;;19.17;;
2213;SDS011;1113;42.018;23.986;2023-03-31T01:13:06;28.63;;;20.98;;
2213;SDS011;1113;42.018;23.986;2023-03-31T01:15:33;31.45;;;21.60;;
2213;SDS011;1113;42.018;23.986;2023-03-31T01:18:00;28.50;;;19.98;;
2213;SDS011;1113;42.018;23.986;2023-03-31T01:20:29;29.83;;;19.90;;
2213;SDS011;1113;42.018;23.986;2023-03-31T01:25:57;26.45;;;18.02;;
2213;SDS011;1113;42.018;23.986;2023-03-31T01:28:30;24.67;;;19.00;;
2213;SDS011;1113;42.018;23.986;2023-03-31T01:33:46;28.65;;;18.00;;
2213;SDS011;1113;42.018;23.986;2023-03-31T01:36:23;23.27;;;17.27;;
2213;SDS011;1113;42.018;23.986;2023-03-31T01:41:39;30.10;;;19.65;;
2213;SDS011;1113;42.018;23.986;2023-03-31T01:44:10;27.23;;;19.58;;
2213;SDS011;1113;42.018;23.986;2023-03-31T01:46:40;24.95;;;18.60;;
2213;SDS011;1113;42.018;23.986;2023-03-31T01:49:10;25.42;;;18.73;;
2213;SDS011;1113;42.018;23.986;2023-03-31T01:51:41;24.67;;;19.48;;
2213;SDS011;1113;42.018;23.986;2023-03-31T01:54:11;25.83;;;19.15;;
2213;SDS011;1113;42.018;23.986;2023-03-31T01:56:40;28.38;;;18.90;;
2213;SDS011;1113;42.018;23.986;2023-03-31T01:59:09;26.52;;;19.13;;
2213;SDS011;1113;42.018;23.986;2023-03-31T02:01:38;26.88;;;18.15;;
2213;SDS011;1113;42.018;23.986;2023-03-31T02:04:09;24.08;;;17.08;;
2213;SDS011;1113;42.018;23.986;2023-03-31T02:06:37;25.63;;;17.15;;
2213;SDS011;1113;42.018;23.986;2023-03-31T02:09:05;25.85;;;17.98;;
2213;SDS011;1113;42.018;23.986;2023-03-31T02:11:34;22.90;;;17.30;;
2213;SDS011;1113;42.018;23.986;2023-03-31T02:14:04;24.45;;;17.98;;
2213;SDS011;1113;42.018;23.986;2023-03-31T02:16:33;31.23;;;24.02;;
2213;SDS011;1113;42.018;23.986;2023-03-31T02:19:02;31.80;;;21.45;;
2213;SDS011;1113;42.018;23.986;2023-03-31T02:21:30;29.73;;;22.30;;
2213;SDS011;1113;42.018;23.986;2023-03-31T02:23:58;29.48;;;21.70;;
2213;SDS011;1113;42.018;23.986;2023-03-31T02:26:26;30.63;;;22.98;;
2213;SDS011;1113;42.018;23.986;2023-03-31T02:28:54;29.02;;;21.98;;
2213;SDS011;1113;42.018;23.986;2023-03-31T02:31:24;25.92;;;19.65;;
2213;SDS011;1113;42.018;23.986;2023-03-31T02:33:52;26.13;;;18.45;;
2213;SDS011;1113;42.018;23.986;2023-03-31T02:36:19;24.35;;;18.00;;
2213;SDS011;1113;42.018;23.986;2023-03-31T02:38:47;26.73;;;18.52;;
2213;SDS011;1113;42.018;23.986;2023-03-31T02:41:16;32.67;;;22.60;;
2213;SDS011;1113;42.018;23.986;2023-03-31T02:43:43;27.55;;;19.85;;
2213;SDS011;1113;42.018;23.986;2023-03-31T02:46:09;28.77;;;21.67;;
2213;SDS011;1113;42.018;23.986;2023-03-31T02:48:38;28.05;;;22.85;;
2213;SDS011;1113;42.018;23.986;2023-03-31T02:53:59;37.33;;;26.48;;
2213;SDS011;1113;42.018;23.986;2023-03-31T02:56:34;31.20;;;22.38;;
2213;SDS011;1113;42.018;23.986;2023-03-31T02:59:12;29.15;;;21.45;;
2213;SDS011;1113;42.018;23.986;2023-03-31T03:01:46;29.33;;;19.55;;
2213;SDS011;1113;42.018;23.986;2023-03-31T03:04:22;24.38;;;18.88;;
2213;SDS011;1113;42.018;23.986;2023-03-31T03:06:54;28.50;;;19.75;;
2213;SDS011;1113;42.018;23.986;2023-03-31T03:09:31;27.88;;;21.80;;
2213;SDS011;1113;42.018;23.986;2023-03-31T03:12:03;24.38;;;18.20;;
2213;SDS011;1113;42.018;23.986;2023-03-31T03:14:33;47.35;;;29.00;;
2213;SDS011;1113;42.018;23.986;2023-03-31T03:17:01;29.65;;;20.75;;
2213;SDS011;1113;42.018;23.986;2023-03-31T03:19:31;28.55;;;20.73;;
2213;SDS011;1113;42.018;23.986;2023-03-31T03:21:57;27.48;;;20.35;;
2213;SDS011;1113;42.018;23.986;2023-03-31T03:24:24;21.40;;;17.02;;
2213;SDS011;1113;42.018;23.986;2023-03-31T03:26:53;20.88;;;17.05;;
2213;SDS011;1113;42.018;23.986;2023-03-31T03:29:20;24.52;;;18.20;;
2213;SDS011;1113;42.018;23.986;2023-03-31T03:31:46;28.50;;;20.02;;
2213;SDS011;1113;42.018;23.986;2023-03-31T03:34:13;29.10;;;22.10;;
2213;SDS011;1113;42.018;23.986;2023-03-31T03:36:41;32.30;;;23.25;;
2213;SDS011;1113;42.018;23.986;2023-03-31T03:39:08;40.38;;;24.80;;
2213;SDS011;1113;42.018;23.986;2023-03-31T03:41:34;43.53;;;27.52;;
2213;SDS011;1113;42.018;23.986;2023-03-31T03:44:01;37.08;;;28.17;;
2213;SDS011;1113;42.018;23.986;2023-03-31T03:46:27;41.97;;;29.48;;
2213;SDS011;1113;42.018;23.986;2023-03-31T03:48:54;48.08;;;30.45;;
2213;SDS011;1113;42.018;23.986;2023-03-31T03:51:21;41.45;;;29.42;;
2213;SDS011;1113;42.018;23.986;2023-03-31T03:53:48;42.88;;;29.80;;
2213;SDS011;1113;42.018;23.986;2023-03-31T03:56:15;44.65;;;30.20;;
2213;SDS011;1113;42.018;23.986;2023-03-31T03:58:41;44.65;;;30.40;;
2213;SDS011;1113;42.018;23.986;2023-03-31T04:01:08;46.08;;;32.20;;
2213;SDS011;1113;42.018;23.986;2023-03-31T04:03:34;42.60;;;30.25;;
2213;SDS011;1113;42.018;23.986;2023-03-31T04:06:01;34.63;;;26.23;;
2213;SDS011;1113;42.018;23.986;2023-03-31T04:08:30;40.70;;;29.02;;
2213;SDS011;1113;42.018;23.986;2023-03-31T04:10:58;39.33;;;25.77;;
2213;SDS011;1113;42.018;23.986;2023-03-31T04:13:25;33.17;;;24.45;;
2213;SDS011;1113;42.018;23.986;2023-03-31T04:15:52;37.80;;;27.52;;
2213;SDS011;1113;42.018;23.986;2023-03-31T04:18:18;36.22;;;26.63;;
2213;SDS011;1113;42.018;23.986;2023-03-31T04:20:48;36.28;;;27.85;;
2213;SDS011;1113;42.018;23.986;2023-03-31T04:23:19;60.00;;;45.47;;
2213;SDS011;1113;42.018;23.986;2023-03-31T04:25:47;60.47;;;45.25;;
2213;SDS011;1113;42.018;23.986;2023-03-31T04:28:15;41.58;;;31.10;;
2213;SDS011;1113;42.018;23.986;2023-03-31T04:30:42;39.78;;;33.30;;
2213;SDS011;1113;42.018;23.986;2023-03-31T04:33:08;37.15;;;28.45;;
2213;SDS011;1113;42.018;23.986;2023-03-31T04:35:35;38.10;;;27.13;;
2213;SDS011;1113;42.018;23.986;2023-03-31T04:38:12;31.00;;;21.77;;
2213;SDS011;1113;42.018;23.986;2023-03-31T04:40:43;29.25;;;22.05;;
2213;SDS011;1113;42.018;23.986;2023-03-31T04:43:09;25.83;;;21.52;;
2213;SDS011;1113;42.018;23.986;2023-03-31T04:45:37;28.83;;;22.10;;
2213;SDS011;1113;42.018;23.986;2023-03-31T04:48:04;32.53;;;22.20;;
2213;SDS011;1113;42.018;23.986;2023-03-31T04:50:30;31.45;;;21.15;;
2213;SDS011;1113;42.018;23.986;2023-03-31T04:52:57;24.15;;;17.02;;
2213;SDS011;1113;42.018;23.986;2023-03-31T04:55:23;26.30;;;19.90;;
2213;SDS011;1113;42.018;23.986;2023-03-31T04:57:50;30.83;;;22.38;;
2213;SDS011;1113;42.018;23.986;2023-03-31T05:00:17;24.83;;;17.67;;
2213;SDS011;1113;42.018;23.986;2023-03-31T05:02:45;25.98;;;19.50;;
2213;SDS011;1113;42.018;23.986;2023-03-31T05:05:12;24.48;;;19.25;;
2213;SDS011;1113;42.018;23.986;2023-03-31T05:07:38;30.65;;;20.40;;
2213;SDS011;1113;42.018;23.986;2023-03-31T05:10:05;20.42;;;16.80;;
2213;SDS011;1113;42.018;23.986;2023-03-31T05:12:33;20.58;;;14.32;;
2213;SDS011;1113;42.018;23.986;2023-03-31T05:14:59;18.25;;;14.63;;
2213;SDS011;1113;42.018;23.986;2023-03-31T05:17:26;26.40;;;16.80;;
2213;SDS011;1113;42.018;23.986;2023-03-31T05:19:54;33.03;;;23.25;;
2213;SDS011;1113;42.018;23.986;2023-03-31T05:22:20;71.30;;;45.03;;
2213;SDS011;1113;42.018;23.986;2023-03-31T05:24:47;47.10;;;31.65;;
2213;SDS011;1113;42.018;23.986;2023-03-31T05:27:14;33.60;;;24.00;;
2213;SDS011;1113;42.018;23.986;2023-03-31T05:29:41;40.28;;;27.63;;
2213;SDS011;1113;42.018;23.986;2023-03-31T05:32:08;37.20;;;28.70;;
2213;SDS011;1113;42.018;23.986;2023-03-31T05:34:34;44.80;;;30.88;;
2213;SDS011;1113;42.018;23.986;2023-03-31T05:37:03;39.65;;;29.45;;
2213;SDS011;1113;42.018;23.986;2023-03-31T05:39:29;113.40;;;70.90;;
2213;SDS011;1113;42.018;23.986;2023-03-31T05:41:57;109.55;;;72.97;;
2213;SDS011;1113;42.018;23.986;2023-03-31T05:44:23;111.95;;;71.45;;
2213;SDS011;1113;42.018;23.986;2023-03-31T05:46:51;112.22;;;72.28;;
2213;SDS011;1113;42.018;23.986;2023-03-31T05:49:17;100.10;;;67.28;;
2213;SDS011;1113;42.018;23.986;2023-03-31T05:51:44;96.40;;;69.18;;
2213;SDS011;1113;42.018;23.986;2023-03-31T05:54:13;96.20;;;60.33;;
2213;SDS011;1113;42.018;23.986;2023-03-31T05:56:39;91.97;;;63.83;;
2213;SDS011;1113;42.018;23.986;2023-03-31T05:59:06;98.55;;;65.72;;
2213;SDS011;1113;42.018;23.986;2023-03-31T06:01:32;98.93;;;67.72;;
2213;SDS011;1113;42.018;23.986;2023-03-31T06:03:59;92.93;;;64.13;;
2213;SDS011;1113;42.018;23.986;2023-03-31T06:06:25;86.72;;;62.25;;
2213;SDS011;1113;42.018;23.986;2023-03-31T06:08:52;87.88;;;61.13;;
2213;SDS011;1113;42.018;23.986;2023-03-31T06:11:20;85.35;;;60.78;;
2213;SDS011;1113;42.018;23.986;2023-03-31T06:13:47;85.15;;;61.97;;
2213;SDS011;1113;42.018;23.986;2023-03-31T06:16:14;89.55;;;62.20;;
2213;SDS011;1113;42.018;23.986;2023-03-31T06:18:41;94.53;;;62.03;;
2213;SDS011;1113;42.018;23.986;2023-03-31T06:21:09;99.20;;;67.93;;
2213;SDS011;1113;42.018;23.986;2023-03-31T06:23:36;106.70;;;71.18;;
2213;SDS011;1113;42.018;23.986;2023-03-31T06:26:03;91.82;;;61.78;;
2213;SDS011;1113;42.018;23.986;2023-03-31T06:28:31;98.70;;;69.07;;
2213;SDS011;1113;42.018;23.986;2023-03-31T06:30:59;115.40;;;81.78;;
2213;SDS011;1113;42.018;23.986;2023-03-31T06:33:26;124.97;;;95.70;;
2213;SDS011;1113;42.018;23.986;2023-03-31T06:35:53;110.05;;;78.22;;
2213;SDS011;1113;42.018;23.986;2023-03-31T06:38:20;76.20;;;54.95;;
2213;SDS011;1113;42.018;23.986;2023-03-31T06:40:47;60.85;;;45.00;;
2213;SDS011;1113;42.018;23.986;2023-03-31T06:43:13;59.88;;;44.20;;
2213;SDS011;1113;42.018;23.986;2023-03-31T06:45:41;49.03;;;36.03;;
2213;SDS011;1113;42.018;23.986;2023-03-31T06:48:08;51.65;;;36.97;;
2213;SDS011;1113;42.018;23.986;2023-03-31T06:50:36;37.75;;;28.52;;
2213;SDS011;1113;42.018;23.986;2023-03-31T06:53:02;56.20;;;39.13;;
2213;SDS011;1113;42.018;23.986;2023-03-31T06:55:29;56.40;;;45.05;;
2213;SDS011;1113;42.018;23.986;2023-03-31T06:57:57;44.10;;;34.80;;
2213;SDS011;1113;42.018;23.986;2023-03-31T07:00:24;33.35;;;26.90;;
2213;SDS011;1113;42.018;23.986;2023-03-31T07:02:52;42.05;;;30.35;;
2213;SDS011;1113;42.018;23.986;2023-03-31T07:05:19;41.60;;;30.60;;
2213;SDS011;1113;42.018;23.986;2023-03-31T07:07:50;41.50;;;27.40;;
2213;SDS011;1113;42.018;23.986;2023-03-31T07:10:17;31.67;;;24.23;;
2213;SDS011;1113;42.018;23.986;2023-03-31T07:12:43;31.40;;;23.17;;
2213;SDS011;1113;42.018;23.986;2023-03-31T07:15:10;23.10;;;16.77;;
2213;SDS011;1113;42.018;23.986;2023-03-31T07:17:36;16.20;;;12.50;;
2213;SDS011;1113;42.018;23.986;2023-03-31T07:20:07;11.77;;;7.93;;
2213;SDS011;1113;42.018;23.986;2023-03-31T07:22:36;12.13;;;7.50;;
2213;SDS011;1113;42.018;23.986;2023-03-31T07:25:03;11.70;;;9.47;;
2213;SDS011;1113;42.018;23.986;2023-03-31T07:27:30;10.10;;;7.10;;
2213;SDS011;1113;42.018;23.986;2023-03-31T07:29:56;9.10;;;6.80;;
2213;SDS011;1113;42.018;23.986;2023-03-31T07:32:23;10.10;;;6.90;;
2213;SDS011;1113;42.018;23.986;2023-03-31T07:34:49;11.27;;;7.40;;
2213;SDS011;1113;42.018;23.986;2023-03-31T07:37:17;11.33;;;7.70;;
2213;SDS011;1113;42.018;23.986;2023-03-31T07:39:44;11.90;;;8.40;;
2213;SDS011;1113;42.018;23.986;2023-03-31T07:42:10;9.27;;;7.70;;
2213;SDS011;1113;42.018;23.986;2023-03-31T07:44:37;13.47;;;7.90;;
2213;SDS011;1113;42.018;23.986;2023-03-31T07:47:03;9.80;;;8.03;;
2213;SDS011;1113;42.018;23.986;2023-03-31T07:49:30;12.67;;;9.80;;
2213;SDS011;1113;42.018;23.986;2023-03-31T07:51:57;14.63;;;11.70;;
2213;SDS011;1113;42.018;23.986;2023-03-31T07:54:25;18.67;;;10.90;;
2213;SDS011;1113;42.018;23.986;2023-03-31T07:56:51;12.60;;;10.20;;
2213;SDS011;1113;42.018;23.986;2023-03-31T07:59:18;14.47;;;10.17;;
2213;SDS011;1113;42.018;23.986;2023-03-31T08:01:44;23.37;;;16.20;;
2213;SDS011;1113;42.018;23.986;2023-03-31T08:04:11;19.80;;;14.90;;
2213;SDS011;1113;42.018;23.986;2023-03-31T08:06:38;19.07;;;11.80;;
2213;SDS011;1113;42.018;23.986;2023-03-31T08:09:05;16.43;;;11.80;;
2213;SDS011;1113;42.018;23.986;2023-03-31T08:11:33;17.27;;;12.20;;
2213;SDS011;1113;42.018;23.986;2023-03-31T08:14:00;14.10;;;10.83;;
2213;SDS011;1113;42.018;23.986;2023-03-31T08:16:26;9.90;;;8.03;;
2213;SDS011;1113;42.018;23.986;2023-03-31T08:18:53;11.50;;;7.67;;
2213;SDS011;1113;42.018;23.986;2023-03-31T08:21:19;13.50;;;6.20;;
2213;SDS011;1113;42.018;23.986;2023-03-31T08:23:46;9.03;;;5.37;;
2213;SDS011;1113;42.018;23.986;2023-03-31T08:26:13;9.50;;;5.70;;
2213;SDS011;1113;42.018;23.986;2023-03-31T08:28:43;9.30;;;6.30;;
2213;SDS011;1113;42.018;23.986;2023-03-31T08:31:10;12.10;;;7.20;;
2213;SDS011;1113;42.018;23.986;2023-03-31T08:33:36;15.27;;;9.10;;
2213;SDS011;1113;42.018;23.986;2023-03-31T08:36:03;14.90;;;10.83;;
2213;SDS011;1113;42.018;23.986;2023-03-31T08:38:32;11.00;;;7.83;;
2213;SDS011;1113;42.018;23.986;2023-03-31T08:41:02;13.50;;;9.03;;
2213;SDS011;1113;42.018;23.986;2023-03-31T08:43:30;8.63;;;5.80;;
2213;SDS011;1113;42.018;23.986;2023-03-31T08:45:58;8.10;;;5.63;;
2213;SDS011;1113;42.018;23.986;2023-03-31T08:48:27;8.90;;;5.80;;
2213;SDS011;1113;42.018;23.986;2023-03-31T08:50:54;15.00;;;8.50;;
2213;SDS011;1113;42.018;23.986;2023-03-31T08:53:23;8.93;;;5.80;;
2213;SDS011;1113;42.018;23.986;2023-03-31T08:55:51;16.40;;;7.60;;
2213;SDS011;1113;42.018;23.986;2023-03-31T08:58:24;14.47;;;7.33;;
2213;SDS011;1113;42.018;23.986;2023-03-31T09:00:54;9.00;;;6.13;;
2213;SDS011;1113;42.018;23.986;2023-03-31T09:03:25;10.50;;;6.03;;
2213;SDS011;1113;42.018;23.986;2023-03-31T09:05:55;9.83;;;5.80;;
2213;SDS011;1113;42.018;23.986;2023-03-31T09:08:28;7.23;;;5.23;;
2213;SDS011;1113;42.018;23.986;2023-03-31T09:10:58;6.97;;;4.30;;
2213;SDS011;1113;42.018;23.986;2023-03-31T09:13:41;6.63;;;3.50;;
2213;SDS011;1113;42.018;23.986;2023-03-31T09:16:11;8.03;;;4.67;;
2213;SDS011;1113;42.018;23.986;2023-03-31T09:18:40;9.80;;;4.97;;
2213;SDS011;1113;42.018;23.986;2023-03-31T09:21:11;6.30;;;4.97;;
2213;SDS011;1113;42.018;23.986;2023-03-31T09:23:39;9.73;;;5.97;;
2213;SDS011;1113;42.018;23.986;2023-03-31T09:26:10;13.10;;;5.70;;
2213;SDS011;1113;42.018;23.986;2023-03-31T09:28:38;8.20;;;6.00;;
2213;SDS011;1113;42.018;23.986;2023-03-31T09:31:07;7.97;;;6.33;;
2213;SDS011;1113;42.018;23.986;2023-03-31T09:33:36;8.87;;;6.43;;
2213;SDS011;1113;42.018;23.986;2023-03-31T09:36:11;11.13;;;5.87;;
2213;SDS011;1113;42.018;23.986;2023-03-31T09:38:39;7.80;;;5.17;;
2213;SDS011;1113;42.018;23.986;2023-03-31T09:41:07;8.10;;;5.40;;
2213;SDS011;1113;42.018;23.986;2023-03-31T09:43:35;9.93;;;6.30;;
2213;SDS011;1113;42.018;23.986;2023-03-31T09:46:02;11.70;;;7.43;;
2213;SDS011;1113;42.018;23.986;2023-03-31T09:48:31;7.93;;;5.20;;
2213;SDS011;1113;42.018;23.986;2023-03-31T09:51:01;9.83;;;5.73;;
2213;SDS011;1113;42.018;23.986;2023-03-31T09:53:30;15.30;;;8.87;;
2213;SDS011;1113;42.018;23.986;2023-03-31T09:55:59;7.60;;;4.80;;
2213;SDS011;1113;42.018;23.986;2023-03-31T09:58:26;12.13;;;5.70;;
2213;SDS011;1113;42.018;23.986;2023-03-31T10:00:56;6.90;;;5.60;;
2213;SDS011;1113;42.018;23.986;2023-03-31T10:03:23;12.73;;;5.87;;
2213;SDS011;1113;42.018;23.986;2023-03-31T10:05:53;8.57;;;5.43;;
2213;SDS011;1113;42.018;23.986;2023-03-31T10:08:22;6.43;;;4.50;;
2213;SDS011;1113;42.018;23.986;2023-03-31T10:10:51;6.40;;;3.60;;
2213;SDS011;1113;42.018;23.986;2023-03-31T10:13:19;7.10;;;3.87;;
2213;SDS011;1113;42.018;23.986;2023-03-31T10:15:46;5.83;;;4.20;;
2213;SDS011;1113;42.018;23.986;2023-03-31T10:18:12;13.50;;;5.30;;
2213;SDS011;1113;42.018;23.986;2023-03-31T10:20:42;8.17;;;5.70;;
2213;SDS011;1113;42.018;23.986;2023-03-31T10:23:14;9.33;;;5.53;;
2213;SDS011;1113;42.018;23.986;2023-03-31T10:25:41;9.47;;;5.47;;
2213;SDS011;1113;42.018;23.986;2023-03-31T10:28:10;8.87;;;6.20;;
2213;SDS011;1113;42.018;23.986;2023-03-31T10:30:38;8.83;;;6.17;;
2213;SDS011;1113;42.018;23.986;2023-03-31T10:33:06;20.53;;;8.87;;
2213;SDS011;1113;42.018;23.986;2023-03-31T10:35:33;10.33;;;5.40;;
2213;SDS011;1113;42.018;23.986;2023-03-31T10:38:01;9.40;;;5.57;;
2213;SDS011;1113;42.018;23.986;2023-03-31T10:40:28;7.87;;;4.97;;
2213;SDS011;1113;42.018;23.986;2023-03-31T10:42:58;6.60;;;4.20;;
2213;SDS011;1113;42.018;23.986;2023-03-31T10:45:27;5.63;;;3.87;;
2213;SDS011;1113;42.018;23.986;2023-03-31T10:47:54;4.00;;;3.27;;
2213;SDS011;1113;42.018;23.986;2023-03-31T10:50:25;5.40;;;3.40;;
2213;SDS011;1113;42.018;23.986;2023-03-31T10:52:52;16.87;;;5.03;;
2213;SDS011;1113;42.018;23.986;2023-03-31T10:55:26;9.50;;;4.77;;
2213;SDS011;1113;42.018;23.986;2023-03-31T10:57:54;8.80;;;5.50;;
2213;SDS011;1113;42.018;23.986;2023-03-31T11:00:24;8.23;;;4.60;;
2213;SDS011;1113;42.018;23.986;2023-03-31T11:03:00;7.30;;;4.30;;
2213;SDS011;1113;42.018;23.986;2023-03-31T11:05:29;10.70;;;4.90;;
2213;SDS011;1113;42.018;23.986;2023-03-31T11:08:00;7.70;;;4.67;;
2213;SDS011;1113;42.018;23.986;2023-03-31T11:10:31;7.70;;;5.50;;
2213;SDS011;1113;42.018;23.986;2023-03-31T11:13:01;18.80;;;5.57;;
2213;SDS011;1113;42.018;23.986;2023-03-31T11:15:34;12.03;;;5.80;;
2213;SDS011;1113;42.018;23.986;2023-03-31T11:18:10;11.00;;;5.47;;
2213;SDS011;1113;42.018;23.986;2023-03-31T11:20:39;12.97;;;6.23;;
2213;SDS011;1113;42.018;23.986;2023-03-31T11:23:09;4.70;;;3.87;;
2213;SDS011;1113;42.018;23.986;2023-03-31T11:25:37;7.30;;;5.27;;
2213;SDS011;1113;42.018;23.986;2023-03-31T11:30:48;14.60;;;8.40;;
2213;SDS011;1113;42.018;23.986;2023-03-31T11:33:24;11.97;;;7.80;;
2213;SDS011;1113;42.018;23.986;2023-03-31T11:35:58;12.07;;;5.63;;
2213;SDS011;1113;42.018;23.986;2023-03-31T11:38:35;7.63;;;5.27;;
2213;SDS011;1113;42.018;23.986;2023-03-31T11:41:06;6.43;;;4.40;;
2213;SDS011;1113;42.018;23.986;2023-03-31T11:43:34;6.30;;;4.67;;
2213;SDS011;1113;42.018;23.986;2023-03-31T11:46:02;6.57;;;5.70;;
2213;SDS011;1113;42.018;23.986;2023-03-31T11:48:36;5.40;;;3.93;;
2213;SDS011;1113;42.018;23.986;2023-03-31T11:51:06;8.30;;;4.87;;
2213;SDS011;1113;42.018;23.986;2023-03-31T11:53:36;9.83;;;6.53;;
2213;SDS011;1113;42.018;23.986;2023-03-31T11:56:04;9.80;;;4.30;;
2213;SDS011;1113;42.018;23.986;2023-03-31T11:58:34;7.93;;;5.70;;
2213;SDS011;1113;42.018;23.986;2023-03-31T12:01:02;8.70;;;5.13;;
2213;SDS011;1113;42.018;23.986;2023-03-31T12:03:33;9.00;;;4.43;;
2213;SDS011;1113;42.018;23.986;2023-03-31T12:06:04;7.23;;;4.17;;
2213;SDS011;1113;42.018;23.986;2023-03-31T12:08:35;7.03;;;4.00;;
2213;SDS011;1113;42.018;23.986;2023-03-31T12:11:04;6.00;;;4.70;;
2213;SDS011;1113;42.018;23.986;2023-03-31T12:13:34;11.33;;;7.27;;
2213;SDS011;1113;42.018;23.986;2023-03-31T12:16:03;12.30;;;8.13;;
2213;SDS011;1113;42.018;23.986;2023-03-31T12:18:31;12.17;;;7.50;;
2213;SDS011;1113;42.018;23.986;2023-03-31T12:21:00;8.57;;;4.60;;
2213;SDS011;1113;42.018;23.986;2023-03-31T12:23:29;6.10;;;3.73;;
2213;SDS011;1113;42.018;23.986;2023-03-31T12:25:59;10.33;;;7.43;;
2213;SDS011;1113;42.018;23.986;2023-03-31T12:28:27;26.40;;;16.00;;
2213;SDS011;1113;42.018;23.986;2023-03-31T12:30:56;17.23;;;9.27;;
2213;SDS011;1113;42.018;23.986;2023-03-31T12:33:26;11.07;;;6.20;;
2213;SDS011;1113;42.018;23.986;2023-03-31T12:35:58;8.80;;;5.80;;
2213;SDS011;1113;42.018;23.986;2023-03-31T12:41:17;8.83;;;5.10;;
2213;SDS011;1113;42.018;23.986;2023-03-31T12:49:15;8.60;;;4.10;;
2213;SDS011;1113;42.018;23.986;2023-03-31T12:51:48;8.20;;;4.33;;
2213;SDS011;1113;42.018;23.986;2023-03-31T12:57:13;4.90;;;3.83;;
2213;SDS011;1113;42.018;23.986;2023-03-31T12:59:41;6.80;;;4.80;;
2213;SDS011;1113;42.018;23.986;2023-03-31T13:02:20;5.70;;;4.53;;
2213;SDS011;1113;42.018;23.986;2023-03-31T13:04:47;7.77;;;4.43;;
2213;SDS011;1113;42.018;23.986;2023-03-31T13:09:56;10.03;;;5.20;;
2213;SDS011;1113;42.018;23.986;2023-03-31T13:12:25;7.63;;;4.73;;
2213;SDS011;1113;42.018;23.986;2023-03-31T13:14:55;11.20;;;7.13;;
2213;SDS011;1113;42.018;23.986;2023-03-31T13:17:25;10.03;;;7.87;;
2213;SDS011;1113;42.018;23.986;2023-03-31T13:19:52;13.93;;;6.90;;
2213;SDS011;1113;42.018;23.986;2023-03-31T13:22:29;17.33;;;7.87;;
2213;SDS011;1113;42.018;23.986;2023-03-31T13:27:44;10.43;;;5.73;;
2213;SDS011;1113;42.018;23.986;2023-03-31T13:33:01;9.53;;;4.60;;
2213;SDS011;1113;42.018;23.986;2023-03-31T13:35:29;8.13;;;5.13;;
2213;SDS011;1113;42.018;23.986;2023-03-31T13:38:01;10.07;;;5.27;;
2213;SDS011;1113;42.018;23.986;2023-03-31T13:43:24;5.87;;;4.10;;
2213;SDS011;1113;42.018;23.986;2023-03-31T13:45:57;8.40;;;4.40;;
2213;SDS011;1113;42.018;23.986;2023-03-31T13:48:31;10.70;;;4.73;;
2213;SDS011;1113;42.018;23.986;2023-03-31T13:54:11;13.53;;;6.90;;
2213;SDS011;1113;42.018;23.986;2023-03-31T13:56:46;10.30;;;4.30;;
2213;SDS011;1113;42.018;23.986;2023-03-31T14:02:11;12.47;;;8.63;;
2213;SDS011;1113;42.018;23.986;2023-03-31T14:07:34;11.93;;;6.30;;
2213;SDS011;1113;42.018;23.986;2023-03-31T14:10:03;9.90;;;7.27;;
2213;SDS011;1113;42.018;23.986;2023-03-31T14:12:32;10.10;;;6.50;;
2213;SDS011;1113;42.018;23.986;2023-03-31T14:14:59;10.63;;;5.77;;
2213;SDS011;1113;42.018;23.986;2023-03-31T14:17:27;9.43;;;5.00;;
2213;SDS011;1113;42.018;23.986;2023-03-31T14:20:07;5.77;;;4.50;;
2213;SDS011;1113;42.018;23.986;2023-03-31T14:22:41;8.47;;;4.60;;
2213;SDS011;1113;42.018;23.986;2023-03-31T14:25:12;8.07;;;5.20;;
2213;SDS011;1113;42.018;23.986;2023-03-31T14:27:45;8.37;;;4.80;;
2213;SDS011;1113;42.018;23.986;2023-03-31T14:30:17;6.90;;;4.40;;
2213;SDS011;1113;42.018;23.986;2023-03-31T14:32:50;16.30;;;7.73;;
2213;SDS011;1113;42.018;23.986;2023-03-31T14:35:24;7.30;;;5.10;;
2213;SDS011;1113;42.018;23.986;2023-03-31T14:37:52;7.67;;;4.93;;
2213;SDS011;1113;42.018;23.986;2023-03-31T14:40:19;11.80;;;5.60;;
2213;SDS011;1113;42.018;23.986;2023-03-31T14:42:46;13.53;;;6.13;;
2213;SDS011;1113;42.018;23.986;2023-03-31T14:45:15;11.20;;;6.40;;
2213;SDS011;1113;42.018;23.986;2023-03-31T14:47:50;8.17;;;4.33;;
2213;SDS011;1113;42.018;23.986;2023-03-31T14:50:20;5.53;;;3.70;;
2213;SDS011;1113;42.018;23.986;2023-03-31T14:52:47;8.20;;;4.30;;
2213;SDS011;1113;42.018;23.986;2023-03-31T14:55:15;12.03;;;6.50;;
2213;SDS011;1113;42.018;23.986;2023-03-31T14:57:42;8.67;;;5.53;;
2213;SDS011;1113;42.018;23.986;2023-03-31T15:00:10;11.03;;;5.60;;
2213;SDS011;1113;42.018;23.986;2023-03-31T15:02:39;5.87;;;4.80;;
2213;SDS011;1113;42.018;23.986;2023-03-31T15:05:07;12.17;;;6.87;;
2213;SDS011;1113;42.018;23.986;2023-03-31T15:07:35;15.20;;;12.70;;
2213;SDS011;1113;42.018;23.986;2023-03-31T15:10:04;7.97;;;5.53;;
2213;SDS011;1113;42.018;23.986;2023-03-31T15:12:31;6.63;;;4.70;;
2213;SDS011;1113;42.018;23.986;2023-03-31T15:15:00;8.00;;;5.17;;
2213;SDS011;1113;42.018;23.986;2023-03-31T15:17:28;24.97;;;16.37;;
2213;SDS011;1113;42.018;23.986;2023-03-31T15:19:57;4.93;;;3.20;;
2213;SDS011;1113;42.018;23.986;2023-03-31T15:22:24;4.73;;;2.30;;
2213;SDS011;1113;42.018;23.986;2023-03-31T15:24:53;5.53;;;1.90;;
2213;SDS011;1113;42.018;23.986;2023-03-31T15:27:23;4.90;;;2.63;;
2213;SDS011;1113;42.018;23.986;2023-03-31T15:29:53;6.57;;;3.60;;
2213;SDS011;1113;42.018;23.986;2023-03-31T15:32:21;7.83;;;4.00;;
2213;SDS011;1113;42.018;23.986;2023-03-31T15:34:50;9.53;;;4.00;;
2213;SDS011;1113;42.018;23.986;2023-03-31T15:37:19;4.63;;;2.30;;
2213;SDS011;1113;42.018;23.986;2023-03-31T15:39:46;10.30;;;4.73;;